sensor_id;sensor_type;location;lat;lon;timestamp;P1;durP1;ratioP1;P2;durP2;ratioP2
29238;SDS011;16267;48.194;11.546;2023-05-20T00:00:16;3.75;;;1.80;;
29238;SDS011;16267;48.194;11.546;2023-05-20T00:02:42;2.30;;;1.73;;
29238;SDS011;16267;48.194;11.546;2023-05-20T00:05:08;3.00;;;2.22;;
29238;SDS011;16267;48.194;11.546;2023-05-20T00:07:34;2.78;;;1.65;;
29238;SDS011;16267;48.194;11.546;2023-05-20T00:10:00;3.25;;;1.88;;
29238;SDS011;16267;48.194;11.546;2023-05-20T00:12:25;2.38;;;1.70;;
29238;SDS011;16267;48.194;11.546;2023-05-20T00:14:51;3.00;;;2.00;;
29238;SDS011;16267;48.194;11.546;2023-05-20T00:17:17;2.60;;;2.00;;
29238;SDS011;16267;48.194;11.546;2023-05-20T00:19:42;2.70;;;1.90;;
29238;SDS011;16267;48.194;11.546;2023-05-20T00:22:08;2.45;;;2.00;;
29238;SDS011;16267;48.194;11.546;2023-05-20T00:24:34;4.05;;;2.40;;
29238;SDS011;16267;48.194;11.546;2023-05-20T00:27:04;3.20;;;2.20;;
29238;SDS011;16267;48.194;11.546;2023-05-20T00:29:30;4.70;;;2.10;;
29238;SDS011;16267;48.194;11.546;2023-05-20T00:31:57;2.40;;;1.83;;
29238;SDS011;16267;48.194;11.546;2023-05-20T00:34:23;3.33;;;2.33;;
29238;SDS011;16267;48.194;11.546;2023-05-20T00:36:48;3.55;;;2.50;;
29238;SDS011;16267;48.194;11.546;2023-05-20T00:39:16;2.65;;;2.08;;
29238;SDS011;16267;48.194;11.546;2023-05-20T00:41:42;4.63;;;2.00;;
29238;SDS011;16267;48.194;11.546;2023-05-20T00:44:07;3.67;;;2.05;;
29238;SDS011;16267;48.194;11.546;2023-05-20T00:46:34;2.55;;;1.92;;
29238;SDS011;16267;48.194;11.546;2023-05-20T00:49:00;2.75;;;1.95;;
29238;SDS011;16267;48.194;11.546;2023-05-20T00:51:26;2.97;;;2.22;;
29238;SDS011;16267;48.194;11.546;2023-05-20T00:53:52;3.08;;;2.38;;
29238;SDS011;16267;48.194;11.546;2023-05-20T00:56:18;2.95;;;2.13;;
29238;SDS011;16267;48.194;11.546;2023-05-20T00:58:46;2.78;;;2.08;;
29238;SDS011;16267;48.194;11.546;2023-05-20T01:01:11;3.67;;;2.30;;
29238;SDS011;16267;48.194;11.546;2023-05-20T01:03:37;2.72;;;2.20;;
29238;SDS011;16267;48.194;11.546;2023-05-20T01:06:04;2.67;;;2.17;;
29238;SDS011;16267;48.194;11.546;2023-05-20T01:08:30;3.00;;;2.28;;
29238;SDS011;16267;48.194;11.546;2023-05-20T01:11:02;3.08;;;2.30;;
29238;SDS011;16267;48.194;11.546;2023-05-20T01:13:55;5.28;;;2.70;;
29238;SDS011;16267;48.194;11.546;2023-05-20T01:16:30;3.92;;;2.60;;
29238;SDS011;16267;48.194;11.546;2023-05-20T01:18:59;2.28;;;1.95;;
29238;SDS011;16267;48.194;11.546;2023-05-20T01:21:30;3.55;;;2.33;;
29238;SDS011;16267;48.194;11.546;2023-05-20T01:23:57;4.60;;;2.72;;
29238;SDS011;16267;48.194;11.546;2023-05-20T01:26:25;3.88;;;2.67;;
29238;SDS011;16267;48.194;11.546;2023-05-20T01:28:51;4.22;;;2.35;;
29238;SDS011;16267;48.194;11.546;2023-05-20T01:31:22;3.10;;;2.40;;
29238;SDS011;16267;48.194;11.546;2023-05-20T01:33:53;3.05;;;2.15;;
29238;SDS011;16267;48.194;11.546;2023-05-20T01:36:23;4.00;;;2.75;;
29238;SDS011;16267;48.194;11.546;2023-05-20T01:38:52;4.25;;;2.70;;
29238;SDS011;16267;48.194;11.546;2023-05-20T01:41:19;4.55;;;2.88;;
29238;SDS011;16267;48.194;11.546;2023-05-20T01:43:48;3.45;;;2.53;;
29238;SDS011;16267;48.194;11.546;2023-05-20T01:46:14;3.72;;;2.83;;
29238;SDS011;16267;48.194;11.546;2023-05-20T01:48:40;3.80;;;2.67;;
29238;SDS011;16267;48.194;11.546;2023-05-20T01:51:05;3.35;;;2.65;;
29238;SDS011;16267;48.194;11.546;2023-05-20T01:53:31;4.55;;;2.80;;
29238;SDS011;16267;48.194;11.546;2023-05-20T01:55:57;3.33;;;2.55;;
29238;SDS011;16267;48.194;11.546;2023-05-20T01:58:23;3.53;;;2.70;;
29238;SDS011;16267;48.194;11.546;2023-05-20T02:00:48;4.57;;;2.67;;
29238;SDS011;16267;48.194;11.546;2023-05-20T02:03:14;3.55;;;2.53;;
29238;SDS011;16267;48.194;11.546;2023-05-20T02:05:40;3.83;;;2.60;;
29238;SDS011;16267;48.194;11.546;2023-05-20T02:08:06;4.30;;;2.53;;
29238;SDS011;16267;48.194;11.546;2023-05-20T02:10:31;4.28;;;2.72;;
29238;SDS011;16267;48.194;11.546;2023-05-20T02:12:57;4.05;;;2.80;;
29238;SDS011;16267;48.194;11.546;2023-05-20T02:15:23;8.27;;;2.75;;
29238;SDS011;16267;48.194;11.546;2023-05-20T02:17:48;5.15;;;3.17;;
29238;SDS011;16267;48.194;11.546;2023-05-20T02:20:14;4.25;;;2.67;;
29238;SDS011;16267;48.194;11.546;2023-05-20T02:22:40;4.13;;;2.80;;
29238;SDS011;16267;48.194;11.546;2023-05-20T02:25:06;4.18;;;2.75;;
29238;SDS011;16267;48.194;11.546;2023-05-20T02:27:33;3.33;;;2.47;;
29238;SDS011;16267;48.194;11.546;2023-05-20T02:29:59;3.80;;;2.67;;
29238;SDS011;16267;48.194;11.546;2023-05-20T02:32:25;3.92;;;2.95;;
29238;SDS011;16267;48.194;11.546;2023-05-20T02:34:53;4.47;;;2.97;;
29238;SDS011;16267;48.194;11.546;2023-05-20T02:37:19;4.10;;;2.85;;
29238;SDS011;16267;48.194;11.546;2023-05-20T02:39:46;3.15;;;2.28;;
29238;SDS011;16267;48.194;11.546;2023-05-20T02:42:12;5.88;;;3.38;;
29238;SDS011;16267;48.194;11.546;2023-05-20T02:44:38;4.50;;;3.13;;
29238;SDS011;16267;48.194;11.546;2023-05-20T02:47:03;3.75;;;2.50;;
29238;SDS011;16267;48.194;11.546;2023-05-20T02:49:29;4.28;;;2.72;;
29238;SDS011;16267;48.194;11.546;2023-05-20T02:51:55;3.17;;;2.60;;
29238;SDS011;16267;48.194;11.546;2023-05-20T02:54:21;3.85;;;2.63;;
29238;SDS011;16267;48.194;11.546;2023-05-20T02:56:46;4.53;;;3.00;;
29238;SDS011;16267;48.194;11.546;2023-05-20T02:59:12;4.00;;;2.97;;
29238;SDS011;16267;48.194;11.546;2023-05-20T03:01:38;4.47;;;3.42;;
29238;SDS011;16267;48.194;11.546;2023-05-20T03:04:04;4.20;;;3.22;;
29238;SDS011;16267;48.194;11.546;2023-05-20T03:06:30;3.78;;;2.72;;
29238;SDS011;16267;48.194;11.546;2023-05-20T03:08:56;4.20;;;3.03;;
29238;SDS011;16267;48.194;11.546;2023-05-20T03:11:22;4.65;;;3.10;;
29238;SDS011;16267;48.194;11.546;2023-05-20T03:13:48;4.55;;;3.20;;
29238;SDS011;16267;48.194;11.546;2023-05-20T03:16:14;7.82;;;3.50;;
29238;SDS011;16267;48.194;11.546;2023-05-20T03:18:40;4.50;;;3.13;;
29238;SDS011;16267;48.194;11.546;2023-05-20T03:21:06;4.85;;;3.28;;
29238;SDS011;16267;48.194;11.546;2023-05-20T03:23:33;4.45;;;3.13;;
29238;SDS011;16267;48.194;11.546;2023-05-20T03:25:59;5.28;;;3.53;;
29238;SDS011;16267;48.194;11.546;2023-05-20T03:28:25;5.93;;;3.35;;
29238;SDS011;16267;48.194;11.546;2023-05-20T03:30:51;5.80;;;3.45;;
29238;SDS011;16267;48.194;11.546;2023-05-20T03:33:17;4.75;;;3.15;;
29238;SDS011;16267;48.194;11.546;2023-05-20T03:35:42;4.28;;;3.38;;
29238;SDS011;16267;48.194;11.546;2023-05-20T03:38:08;4.95;;;3.50;;
29238;SDS011;16267;48.194;11.546;2023-05-20T03:40:34;4.30;;;3.03;;
29238;SDS011;16267;48.194;11.546;2023-05-20T03:43:00;3.90;;;3.15;;
29238;SDS011;16267;48.194;11.546;2023-05-20T03:45:25;4.53;;;3.45;;
29238;SDS011;16267;48.194;11.546;2023-05-20T03:47:51;4.40;;;3.42;;
29238;SDS011;16267;48.194;11.546;2023-05-20T03:50:17;6.18;;;4.00;;
29238;SDS011;16267;48.194;11.546;2023-05-20T03:52:43;4.70;;;3.60;;
29238;SDS011;16267;48.194;11.546;2023-05-20T03:55:09;4.65;;;3.45;;
29238;SDS011;16267;48.194;11.546;2023-05-20T03:57:34;4.57;;;3.65;;
29238;SDS011;16267;48.194;11.546;2023-05-20T04:00:00;5.70;;;3.72;;
29238;SDS011;16267;48.194;11.546;2023-05-20T04:02:34;4.57;;;3.38;;
29238;SDS011;16267;48.194;11.546;2023-05-20T04:05:00;4.68;;;3.53;;
29238;SDS011;16267;48.194;11.546;2023-05-20T04:07:26;5.82;;;3.90;;
29238;SDS011;16267;48.194;11.546;2023-05-20T04:09:53;7.78;;;3.88;;
29238;SDS011;16267;48.194;11.546;2023-05-20T04:12:19;5.68;;;4.03;;
29238;SDS011;16267;48.194;11.546;2023-05-20T04:14:46;4.57;;;3.35;;
29238;SDS011;16267;48.194;11.546;2023-05-20T04:17:13;6.72;;;3.58;;
29238;SDS011;16267;48.194;11.546;2023-05-20T04:19:39;6.15;;;4.15;;
29238;SDS011;16267;48.194;11.546;2023-05-20T04:22:05;9.05;;;4.78;;
29238;SDS011;16267;48.194;11.546;2023-05-20T04:24:31;8.77;;;6.30;;
29238;SDS011;16267;48.194;11.546;2023-05-20T04:26:56;11.35;;;6.28;;
29238;SDS011;16267;48.194;11.546;2023-05-20T04:29:22;9.95;;;6.50;;
29238;SDS011;16267;48.194;11.546;2023-05-20T04:31:48;8.95;;;5.20;;
29238;SDS011;16267;48.194;11.546;2023-05-20T04:34:14;7.50;;;6.10;;
29238;SDS011;16267;48.194;11.546;2023-05-20T04:36:43;5.75;;;4.53;;
29238;SDS011;16267;48.194;11.546;2023-05-20T04:39:09;6.40;;;4.10;;
29238;SDS011;16267;48.194;11.546;2023-05-20T04:41:35;6.82;;;4.70;;
29238;SDS011;16267;48.194;11.546;2023-05-20T04:44:01;6.38;;;4.15;;
29238;SDS011;16267;48.194;11.546;2023-05-20T04:46:27;6.18;;;4.03;;
29238;SDS011;16267;48.194;11.546;2023-05-20T04:48:53;7.00;;;4.05;;
29238;SDS011;16267;48.194;11.546;2023-05-20T04:51:19;6.30;;;3.38;;
29238;SDS011;16267;48.194;11.546;2023-05-20T04:53:45;5.72;;;3.55;;
29238;SDS011;16267;48.194;11.546;2023-05-20T04:56:11;5.53;;;3.92;;
29238;SDS011;16267;48.194;11.546;2023-05-20T04:58:37;8.50;;;4.10;;
29238;SDS011;16267;48.194;11.546;2023-05-20T05:01:03;6.80;;;4.15;;
29238;SDS011;16267;48.194;11.546;2023-05-20T05:03:29;6.38;;;4.30;;
29238;SDS011;16267;48.194;11.546;2023-05-20T05:05:56;6.40;;;3.90;;
29238;SDS011;16267;48.194;11.546;2023-05-20T05:08:23;7.15;;;3.90;;
29238;SDS011;16267;48.194;11.546;2023-05-20T05:10:50;5.53;;;3.20;;
29238;SDS011;16267;48.194;11.546;2023-05-20T05:13:16;8.50;;;5.00;;
29238;SDS011;16267;48.194;11.546;2023-05-20T05:15:42;8.07;;;4.95;;
29238;SDS011;16267;48.194;11.546;2023-05-20T05:18:07;8.40;;;4.47;;
29238;SDS011;16267;48.194;11.546;2023-05-20T05:20:33;6.30;;;4.13;;
29238;SDS011;16267;48.194;11.546;2023-05-20T05:22:59;9.40;;;5.10;;
29238;SDS011;16267;48.194;11.546;2023-05-20T05:25:25;9.40;;;5.65;;
29238;SDS011;16267;48.194;11.546;2023-05-20T05:27:51;8.52;;;4.65;;
29238;SDS011;16267;48.194;11.546;2023-05-20T05:30:19;7.32;;;4.43;;
29238;SDS011;16267;48.194;11.546;2023-05-20T05:32:46;8.95;;;4.75;;
29238;SDS011;16267;48.194;11.546;2023-05-20T05:35:11;7.28;;;4.45;;
29238;SDS011;16267;48.194;11.546;2023-05-20T05:37:37;8.82;;;4.70;;
29238;SDS011;16267;48.194;11.546;2023-05-20T05:40:03;8.60;;;5.40;;
29238;SDS011;16267;48.194;11.546;2023-05-20T05:42:31;7.75;;;4.32;;
29238;SDS011;16267;48.194;11.546;2023-05-20T05:44:56;7.63;;;4.70;;
29238;SDS011;16267;48.194;11.546;2023-05-20T05:47:22;9.82;;;5.22;;
29238;SDS011;16267;48.194;11.546;2023-05-20T05:49:48;6.93;;;4.60;;
29238;SDS011;16267;48.194;11.546;2023-05-20T05:52:14;8.02;;;5.03;;
29238;SDS011;16267;48.194;11.546;2023-05-20T05:54:39;8.77;;;5.40;;
29238;SDS011;16267;48.194;11.546;2023-05-20T05:57:05;7.32;;;4.40;;
29238;SDS011;16267;48.194;11.546;2023-05-20T05:59:31;8.50;;;4.88;;
29238;SDS011;16267;48.194;11.546;2023-05-20T06:01:57;7.03;;;4.57;;
29238;SDS011;16267;48.194;11.546;2023-05-20T06:04:23;8.15;;;5.00;;
29238;SDS011;16267;48.194;11.546;2023-05-20T06:06:48;9.70;;;5.13;;
29238;SDS011;16267;48.194;11.546;2023-05-20T06:09:14;8.38;;;4.90;;
29238;SDS011;16267;48.194;11.546;2023-05-20T06:11:40;8.68;;;4.47;;
29238;SDS011;16267;48.194;11.546;2023-05-20T06:14:06;7.80;;;4.47;;
29238;SDS011;16267;48.194;11.546;2023-05-20T06:16:32;7.00;;;4.35;;
29238;SDS011;16267;48.194;11.546;2023-05-20T06:18:57;6.90;;;4.63;;
29238;SDS011;16267;48.194;11.546;2023-05-20T06:21:23;6.10;;;4.13;;
29238;SDS011;16267;48.194;11.546;2023-05-20T06:23:49;6.90;;;4.10;;
29238;SDS011;16267;48.194;11.546;2023-05-20T06:26:15;8.10;;;5.03;;
29238;SDS011;16267;48.194;11.546;2023-05-20T06:28:41;7.70;;;4.50;;
29238;SDS011;16267;48.194;11.546;2023-05-20T06:31:06;7.20;;;4.65;;
29238;SDS011;16267;48.194;11.546;2023-05-20T06:33:33;6.22;;;4.32;;
29238;SDS011;16267;48.194;11.546;2023-05-20T06:35:58;6.47;;;4.28;;
29238;SDS011;16267;48.194;11.546;2023-05-20T06:38:25;7.97;;;4.63;;
29238;SDS011;16267;48.194;11.546;2023-05-20T06:40:51;6.40;;;4.18;;
29238;SDS011;16267;48.194;11.546;2023-05-20T06:43:17;8.50;;;5.65;;
29238;SDS011;16267;48.194;11.546;2023-05-20T06:45:43;17.02;;;5.18;;
29238;SDS011;16267;48.194;11.546;2023-05-20T06:48:09;7.45;;;4.72;;
29238;SDS011;16267;48.194;11.546;2023-05-20T06:50:35;9.82;;;5.05;;
29238;SDS011;16267;48.194;11.546;2023-05-20T06:53:01;7.78;;;4.80;;
29238;SDS011;16267;48.194;11.546;2023-05-20T06:55:28;7.93;;;5.35;;
29238;SDS011;16267;48.194;11.546;2023-05-20T06:57:54;10.40;;;5.30;;
29238;SDS011;16267;48.194;11.546;2023-05-20T07:00:20;7.97;;;5.55;;
29238;SDS011;16267;48.194;11.546;2023-05-20T07:02:46;8.43;;;5.25;;
29238;SDS011;16267;48.194;11.546;2023-05-20T07:05:11;8.45;;;4.93;;
29238;SDS011;16267;48.194;11.546;2023-05-20T07:07:37;8.52;;;5.32;;
29238;SDS011;16267;48.194;11.546;2023-05-20T07:10:04;8.32;;;5.10;;
29238;SDS011;16267;48.194;11.546;2023-05-20T07:12:31;7.30;;;5.07;;
29238;SDS011;16267;48.194;11.546;2023-05-20T07:14:57;7.28;;;5.05;;
29238;SDS011;16267;48.194;11.546;2023-05-20T07:17:23;7.72;;;5.03;;
29238;SDS011;16267;48.194;11.546;2023-05-20T07:19:50;7.53;;;4.43;;
29238;SDS011;16267;48.194;11.546;2023-05-20T07:22:16;8.73;;;5.20;;
29238;SDS011;16267;48.194;11.546;2023-05-20T07:24:41;8.70;;;5.30;;
29238;SDS011;16267;48.194;11.546;2023-05-20T07:27:07;8.73;;;5.10;;
29238;SDS011;16267;48.194;11.546;2023-05-20T07:29:33;7.38;;;5.15;;
29238;SDS011;16267;48.194;11.546;2023-05-20T07:32:00;8.13;;;4.75;;
29238;SDS011;16267;48.194;11.546;2023-05-20T07:34:26;7.25;;;5.30;;
29238;SDS011;16267;48.194;11.546;2023-05-20T07:36:52;7.28;;;4.68;;
29238;SDS011;16267;48.194;11.546;2023-05-20T07:39:18;7.47;;;4.55;;
29238;SDS011;16267;48.194;11.546;2023-05-20T07:41:44;8.57;;;4.88;;
29238;SDS011;16267;48.194;11.546;2023-05-20T07:44:09;9.52;;;6.13;;
29238;SDS011;16267;48.194;11.546;2023-05-20T07:46:37;6.15;;;4.43;;
29238;SDS011;16267;48.194;11.546;2023-05-20T07:49:03;7.10;;;4.65;;
29238;SDS011;16267;48.194;11.546;2023-05-20T07:51:29;6.25;;;4.28;;
29238;SDS011;16267;48.194;11.546;2023-05-20T07:53:55;6.55;;;4.40;;
29238;SDS011;16267;48.194;11.546;2023-05-20T07:56:21;6.05;;;4.20;;
29238;SDS011;16267;48.194;11.546;2023-05-20T07:58:51;5.35;;;4.32;;
29238;SDS011;16267;48.194;11.546;2023-05-20T08:01:25;5.43;;;3.97;;
29238;SDS011;16267;48.194;11.546;2023-05-20T08:03:51;5.80;;;4.18;;
29238;SDS011;16267;48.194;11.546;2023-05-20T08:06:17;5.95;;;3.92;;
29238;SDS011;16267;48.194;11.546;2023-05-20T08:08:48;5.20;;;4.05;;
29238;SDS011;16267;48.194;11.546;2023-05-20T08:11:14;6.65;;;4.68;;
29238;SDS011;16267;48.194;11.546;2023-05-20T08:13:40;7.10;;;4.22;;
29238;SDS011;16267;48.194;11.546;2023-05-20T08:16:06;5.13;;;3.75;;
29238;SDS011;16267;48.194;11.546;2023-05-20T08:18:33;4.15;;;3.35;;
29238;SDS011;16267;48.194;11.546;2023-05-20T08:21:04;5.00;;;3.97;;
29238;SDS011;16267;48.194;11.546;2023-05-20T08:23:32;4.57;;;3.03;;
29238;SDS011;16267;48.194;11.546;2023-05-20T08:25:58;5.82;;;3.72;;
29238;SDS011;16267;48.194;11.546;2023-05-20T08:28:26;6.28;;;3.55;;
29238;SDS011;16267;48.194;11.546;2023-05-20T08:30:52;5.32;;;3.08;;
29238;SDS011;16267;48.194;11.546;2023-05-20T08:33:18;4.82;;;3.30;;
29238;SDS011;16267;48.194;11.546;2023-05-20T08:35:46;5.68;;;3.20;;
29238;SDS011;16267;48.194;11.546;2023-05-20T08:38:12;5.78;;;3.60;;
29238;SDS011;16267;48.194;11.546;2023-05-20T08:40:38;3.80;;;2.80;;
29238;SDS011;16267;48.194;11.546;2023-05-20T08:43:03;4.10;;;2.95;;
29238;SDS011;16267;48.194;11.546;2023-05-20T08:45:33;3.75;;;2.78;;
29238;SDS011;16267;48.194;11.546;2023-05-20T08:48:03;5.50;;;3.13;;
29238;SDS011;16267;48.194;11.546;2023-05-20T08:50:29;6.15;;;3.85;;
29238;SDS011;16267;48.194;11.546;2023-05-20T08:52:55;3.97;;;3.00;;
29238;SDS011;16267;48.194;11.546;2023-05-20T08:55:41;4.78;;;3.17;;
29238;SDS011;16267;48.194;11.546;2023-05-20T08:58:10;4.68;;;2.97;;
29238;SDS011;16267;48.194;11.546;2023-05-20T09:00:37;4.00;;;2.78;;
29238;SDS011;16267;48.194;11.546;2023-05-20T09:03:03;4.18;;;2.30;;
29238;SDS011;16267;48.194;11.546;2023-05-20T09:05:29;2.70;;;2.03;;
29238;SDS011;16267;48.194;11.546;2023-05-20T09:08:08;4.85;;;2.60;;
29238;SDS011;16267;48.194;11.546;2023-05-20T09:10:36;3.92;;;2.55;;
29238;SDS011;16267;48.194;11.546;2023-05-20T09:13:04;2.60;;;2.03;;
29238;SDS011;16267;48.194;11.546;2023-05-20T09:15:31;4.40;;;3.25;;
29238;SDS011;16267;48.194;11.546;2023-05-20T09:18:02;3.03;;;2.20;;
29238;SDS011;16267;48.194;11.546;2023-05-20T09:20:32;4.20;;;2.20;;
29238;SDS011;16267;48.194;11.546;2023-05-20T09:23:01;3.83;;;2.30;;
29238;SDS011;16267;48.194;11.546;2023-05-20T09:25:29;2.78;;;2.13;;
29238;SDS011;16267;48.194;11.546;2023-05-20T09:27:55;3.05;;;2.13;;
29238;SDS011;16267;48.194;11.546;2023-05-20T09:30:21;2.13;;;1.75;;
29238;SDS011;16267;48.194;11.546;2023-05-20T09:32:51;3.03;;;2.15;;
29238;SDS011;16267;48.194;11.546;2023-05-20T09:35:21;3.45;;;2.20;;
29238;SDS011;16267;48.194;11.546;2023-05-20T09:37:52;2.83;;;2.00;;
29238;SDS011;16267;48.194;11.546;2023-05-20T09:40:28;2.95;;;1.90;;
29238;SDS011;16267;48.194;11.546;2023-05-20T09:43:04;2.78;;;1.90;;
29238;SDS011;16267;48.194;11.546;2023-05-20T09:45:31;2.90;;;1.98;;
29238;SDS011;16267;48.194;11.546;2023-05-20T09:47:58;2.50;;;1.80;;
29238;SDS011;16267;48.194;11.546;2023-05-20T09:50:26;2.30;;;1.67;;
29238;SDS011;16267;48.194;11.546;2023-05-20T09:52:53;2.97;;;1.98;;
29238;SDS011;16267;48.194;11.546;2023-05-20T09:55:21;2.97;;;1.88;;
29238;SDS011;16267;48.194;11.546;2023-05-20T09:57:49;2.10;;;1.42;;
29238;SDS011;16267;48.194;11.546;2023-05-20T10:00:15;2.35;;;1.83;;
29238;SDS011;16267;48.194;11.546;2023-05-20T10:02:46;2.83;;;1.88;;
29238;SDS011;16267;48.194;11.546;2023-05-20T10:05:15;2.60;;;1.85;;
29238;SDS011;16267;48.194;11.546;2023-05-20T10:11:05;1.90;;;1.40;;
29238;SDS011;16267;48.194;11.546;2023-05-20T10:14:28;2.75;;;1.98;;
29238;SDS011;16267;48.194;11.546;2023-05-20T10:17:20;6.88;;;2.05;;
29238;SDS011;16267;48.194;11.546;2023-05-20T10:19:56;2.75;;;1.90;;
29238;SDS011;16267;48.194;11.546;2023-05-20T10:22:26;2.67;;;1.70;;
29238;SDS011;16267;48.194;11.546;2023-05-20T10:25:03;2.65;;;1.60;;
29238;SDS011;16267;48.194;11.546;2023-05-20T10:27:41;2.45;;;1.73;;
29238;SDS011;16267;48.194;11.546;2023-05-20T10:30:16;3.30;;;2.15;;
29238;SDS011;16267;48.194;11.546;2023-05-20T10:32:51;2.30;;;1.80;;
29238;SDS011;16267;48.194;11.546;2023-05-20T10:35:24;2.75;;;1.83;;
29238;SDS011;16267;48.194;11.546;2023-05-20T10:37:52;2.58;;;1.75;;
29238;SDS011;16267;48.194;11.546;2023-05-20T10:40:20;3.03;;;1.95;;
29238;SDS011;16267;48.194;11.546;2023-05-20T10:42:47;4.07;;;2.10;;
29238;SDS011;16267;48.194;11.546;2023-05-20T10:45:26;3.58;;;2.20;;
29238;SDS011;16267;48.194;11.546;2023-05-20T10:47:57;2.65;;;1.88;;
29238;SDS011;16267;48.194;11.546;2023-05-20T10:50:27;2.17;;;1.65;;
29238;SDS011;16267;48.194;11.546;2023-05-20T10:53:04;2.33;;;1.80;;
29238;SDS011;16267;48.194;11.546;2023-05-20T10:55:35;2.40;;;1.88;;
29238;SDS011;16267;48.194;11.546;2023-05-20T10:58:05;2.58;;;1.85;;
29238;SDS011;16267;48.194;11.546;2023-05-20T11:00:35;2.60;;;1.83;;
29238;SDS011;16267;48.194;11.546;2023-05-20T11:03:01;1.95;;;1.48;;
29238;SDS011;16267;48.194;11.546;2023-05-20T11:05:31;1.67;;;1.30;;
29238;SDS011;16267;48.194;11.546;2023-05-20T11:08:05;2.08;;;1.35;;
29238;SDS011;16267;48.194;11.546;2023-05-20T11:10:33;2.30;;;1.40;;
29238;SDS011;16267;48.194;11.546;2023-05-20T11:13:01;2.40;;;1.58;;
29238;SDS011;16267;48.194;11.546;2023-05-20T11:15:28;2.05;;;1.50;;
29238;SDS011;16267;48.194;11.546;2023-05-20T11:17:59;2.63;;;1.70;;
29238;SDS011;16267;48.194;11.546;2023-05-20T11:20:27;2.08;;;1.70;;
29238;SDS011;16267;48.194;11.546;2023-05-20T11:22:55;2.15;;;1.50;;
29238;SDS011;16267;48.194;11.546;2023-05-20T11:25:21;2.42;;;1.55;;
29238;SDS011;16267;48.194;11.546;2023-05-20T11:27:47;2.05;;;1.40;;
29238;SDS011;16267;48.194;11.546;2023-05-20T11:30:15;1.60;;;1.50;;
29238;SDS011;16267;48.194;11.546;2023-05-20T11:32:55;2.42;;;1.67;;
29238;SDS011;16267;48.194;11.546;2023-05-20T11:35:25;1.55;;;1.20;;
29238;SDS011;16267;48.194;11.546;2023-05-20T11:40:25;1.95;;;1.48;;
29238;SDS011;16267;48.194;11.546;2023-05-20T11:42:55;2.28;;;1.58;;
29238;SDS011;16267;48.194;11.546;2023-05-20T11:45:23;2.45;;;1.42;;
29238;SDS011;16267;48.194;11.546;2023-05-20T11:47:59;2.20;;;1.70;;
29238;SDS011;16267;48.194;11.546;2023-05-20T11:50:33;1.77;;;1.48;;
29238;SDS011;16267;48.194;11.546;2023-05-20T11:53:06;1.98;;;1.52;;
29238;SDS011;16267;48.194;11.546;2023-05-20T11:55:45;1.42;;;1.20;;
29238;SDS011;16267;48.194;11.546;2023-05-20T11:58:22;2.20;;;1.35;;
29238;SDS011;16267;48.194;11.546;2023-05-20T12:00:55;2.53;;;1.50;;
29238;SDS011;16267;48.194;11.546;2023-05-20T12:03:22;2.22;;;1.42;;
29238;SDS011;16267;48.194;11.546;2023-05-20T12:05:48;1.77;;;1.30;;
29238;SDS011;16267;48.194;11.546;2023-05-20T12:08:15;2.47;;;1.80;;
29238;SDS011;16267;48.194;11.546;2023-05-20T12:10:41;3.08;;;1.63;;
29238;SDS011;16267;48.194;11.546;2023-05-20T12:13:08;2.40;;;1.67;;
29238;SDS011;16267;48.194;11.546;2023-05-20T12:15:37;2.15;;;1.85;;
29238;SDS011;16267;48.194;11.546;2023-05-20T12:18:04;2.72;;;1.85;;
29238;SDS011;16267;48.194;11.546;2023-05-20T12:20:30;3.22;;;1.65;;
29238;SDS011;16267;48.194;11.546;2023-05-20T12:22:58;1.70;;;1.60;;
29238;SDS011;16267;48.194;11.546;2023-05-20T12:25:27;3.70;;;2.03;;
29238;SDS011;16267;48.194;11.546;2023-05-20T12:27:54;1.80;;;1.48;;
29238;SDS011;16267;48.194;11.546;2023-05-20T12:30:21;2.05;;;1.48;;
29238;SDS011;16267;48.194;11.546;2023-05-20T12:32:48;2.42;;;1.90;;
29238;SDS011;16267;48.194;11.546;2023-05-20T12:35:15;3.03;;;2.00;;
29238;SDS011;16267;48.194;11.546;2023-05-20T12:37:42;2.67;;;2.05;;
29238;SDS011;16267;48.194;11.546;2023-05-20T12:40:09;2.53;;;2.22;;
29238;SDS011;16267;48.194;11.546;2023-05-20T12:42:37;5.53;;;2.20;;
29238;SDS011;16267;48.194;11.546;2023-05-20T12:45:04;3.10;;;2.28;;
29238;SDS011;16267;48.194;11.546;2023-05-20T12:47:31;5.18;;;2.40;;
29238;SDS011;16267;48.194;11.546;2023-05-20T12:49:58;3.05;;;2.40;;
29238;SDS011;16267;48.194;11.546;2023-05-20T12:52:25;3.65;;;2.22;;
29238;SDS011;16267;48.194;11.546;2023-05-20T12:54:52;3.53;;;2.58;;
29238;SDS011;16267;48.194;11.546;2023-05-20T12:57:19;3.92;;;2.40;;
29238;SDS011;16267;48.194;11.546;2023-05-20T12:59:45;4.20;;;2.70;;
29238;SDS011;16267;48.194;11.546;2023-05-20T13:02:11;3.47;;;2.60;;
29238;SDS011;16267;48.194;11.546;2023-05-20T13:04:37;3.78;;;2.60;;
29238;SDS011;16267;48.194;11.546;2023-05-20T13:07:03;4.60;;;2.97;;
29238;SDS011;16267;48.194;11.546;2023-05-20T13:09:30;3.25;;;2.53;;
29238;SDS011;16267;48.194;11.546;2023-05-20T13:11:57;4.30;;;2.63;;
29238;SDS011;16267;48.194;11.546;2023-05-20T13:14:22;3.03;;;2.20;;
29238;SDS011;16267;48.194;11.546;2023-05-20T13:16:48;4.22;;;2.42;;
29238;SDS011;16267;48.194;11.546;2023-05-20T13:19:19;4.00;;;2.63;;
29238;SDS011;16267;48.194;11.546;2023-05-20T13:21:46;3.42;;;2.33;;
29238;SDS011;16267;48.194;11.546;2023-05-20T13:24:13;2.63;;;2.35;;
29238;SDS011;16267;48.194;11.546;2023-05-20T13:26:39;3.58;;;2.67;;
29238;SDS011;16267;48.194;11.546;2023-05-20T13:29:05;3.17;;;2.30;;
29238;SDS011;16267;48.194;11.546;2023-05-20T13:31:31;3.25;;;2.13;;
29238;SDS011;16267;48.194;11.546;2023-05-20T13:33:56;2.95;;;2.05;;
29238;SDS011;16267;48.194;11.546;2023-05-20T13:36:24;3.13;;;2.47;;
29238;SDS011;16267;48.194;11.546;2023-05-20T13:38:51;3.13;;;2.22;;
29238;SDS011;16267;48.194;11.546;2023-05-20T13:41:17;3.42;;;2.72;;
29238;SDS011;16267;48.194;11.546;2023-05-20T13:43:42;3.15;;;2.40;;
29238;SDS011;16267;48.194;11.546;2023-05-20T13:46:08;3.22;;;2.50;;
29238;SDS011;16267;48.194;11.546;2023-05-20T13:48:35;4.00;;;2.92;;
29238;SDS011;16267;48.194;11.546;2023-05-20T13:51:00;4.22;;;2.97;;
29238;SDS011;16267;48.194;11.546;2023-05-20T13:53:27;3.97;;;2.55;;
29238;SDS011;16267;48.194;11.546;2023-05-20T13:55:53;4.55;;;3.10;;
29238;SDS011;16267;48.194;11.546;2023-05-20T13:58:18;3.40;;;2.58;;
29238;SDS011;16267;48.194;11.546;2023-05-20T14:00:44;4.72;;;2.63;;
29238;SDS011;16267;48.194;11.546;2023-05-20T14:03:10;4.72;;;2.63;;
29238;SDS011;16267;48.194;11.546;2023-05-20T14:05:36;3.83;;;2.72;;
29238;SDS011;16267;48.194;11.546;2023-05-20T14:08:02;3.28;;;2.47;;
29238;SDS011;16267;48.194;11.546;2023-05-20T14:10:27;3.70;;;2.30;;
29238;SDS011;16267;48.194;11.546;2023-05-20T14:12:53;5.93;;;3.10;;
29238;SDS011;16267;48.194;11.546;2023-05-20T14:15:21;3.35;;;2.55;;
29238;SDS011;16267;48.194;11.546;2023-05-20T14:17:48;3.30;;;2.47;;
29238;SDS011;16267;48.194;11.546;2023-05-20T14:20:14;4.60;;;3.47;;
29238;SDS011;16267;48.194;11.546;2023-05-20T14:22:40;3.83;;;2.95;;
29238;SDS011;16267;48.194;11.546;2023-05-20T14:25:06;4.05;;;3.00;;
29238;SDS011;16267;48.194;11.546;2023-05-20T14:27:32;4.32;;;3.20;;
29238;SDS011;16267;48.194;11.546;2023-05-20T14:29:59;4.47;;;2.95;;
29238;SDS011;16267;48.194;11.546;2023-05-20T14:32:25;3.50;;;2.75;;
29238;SDS011;16267;48.194;11.546;2023-05-20T14:34:51;3.60;;;2.60;;
29238;SDS011;16267;48.194;11.546;2023-05-20T14:37:17;4.00;;;2.75;;
29238;SDS011;16267;48.194;11.546;2023-05-20T14:39:43;4.20;;;2.88;;